sensor_id;sensor_type;location;lat;lon;timestamp;pressure;altitude;pressure_sealevel;temperature;humidity
5879;BME280;2965;42.640;23.370;2022-11-03T05:01:13;95084.84;;;12.95;100.00
5879;BME280;2965;42.640;23.370;2022-11-03T05:03:41;95076.63;;;12.98;100.00
5879;BME280;2965;42.640;23.370;2022-11-03T05:06:10;95045.84;;;15.09;100.00
5879;BME280;2965;42.640;23.370;2022-11-03T05:08:36;95038.44;;;16.52;100.00
5879;BME280;2965;42.640;23.370;2022-11-03T05:14:19;95057.25;;;18.47;100.00
5879;BME280;2965;42.640;23.370;2022-11-03T05:16:46;95066.03;;;19.03;100.00
5879;BME280;2965;42.640;23.370;2022-11-03T05:19:25;95073.28;;;19.44;100.00
5879;BME280;2965;42.640;23.370;2022-11-03T05:21:53;95080.91;;;18.85;100.00
5879;BME280;2965;42.640;23.370;2022-11-03T05:24:21;95099.75;;;17.77;77.56
5879;BME280;2965;42.640;23.370;2022-11-03T05:26:50;95088.78;;;16.64;82.64
5879;BME280;2965;42.640;23.370;2022-11-03T05:29:20;95094.94;;;16.18;84.92
5879;BME280;2965;42.640;23.370;2022-11-03T05:31:47;95087.63;;;15.67;88.51
5879;BME280;2965;42.640;23.370;2022-11-03T05:34:30;95092.31;;;15.17;93.55
5879;BME280;2965;42.640;23.370;2022-11-03T05:39:34;95096.94;;;14.67;97.99
5879;BME280;2965;42.640;23.370;2022-11-03T05:42:01;95105.66;;;14.39;99.37
5879;BME280;2965;42.640;23.370;2022-11-03T05:44:38;95094.72;;;15.05;100.00
5879;BME280;2965;42.640;23.370;2022-11-03T05:49:44;95105.88;;;17.71;100.00
5879;BME280;2965;42.640;23.370;2022-11-03T05:52:21;95102.16;;;18.35;100.00
5879;BME280;2965;42.640;23.370;2022-11-03T05:54:47;95111.09;;;18.84;100.00
5879;BME280;2965;42.640;23.370;2022-11-03T05:57:14;95118.47;;;19.19;100.00
5879;BME280;2965;42.640;23.370;2022-11-03T05:59:42;95125.88;;;19.47;100.00
5879;BME280;2965;42.640;23.370;2022-11-03T06:02:37;95125.94;;;19.59;100.00
5879;BME280;2965;42.640;23.370;2022-11-03T06:05:12;95133.38;;;19.69;100.00
5879;BME280;2965;42.640;23.370;2022-11-03T06:07:39;95137.69;;;19.81;100.00
5879;BME280;2965;42.640;23.370;2022-11-03T06:12:44;95140.41;;;19.26;72.22
5879;BME280;2965;42.640;23.370;2022-11-03T06:15:30;95142.22;;;18.71;93.20
5879;BME280;2965;42.640;23.370;2022-11-03T06:17:56;95145.19;;;19.36;93.32
5879;BME280;2965;42.640;23.370;2022-11-03T06:20:22;95147.41;;;19.87;90.76
5879;BME280;2965;42.640;23.370;2022-11-03T06:22:49;95142.50;;;20.03;86.97
5879;BME280;2965;42.640;23.370;2022-11-03T06:25:29;95154.09;;;20.32;90.06
5879;BME280;2965;42.640;23.370;2022-11-03T06:28:00;95146.44;;;20.54;86.74
5879;BME280;2965;42.640;23.370;2022-11-03T06:30:33;95145.50;;;20.72;83.98
5879;BME280;2965;42.640;23.370;2022-11-03T06:33:32;95155.25;;;20.89;83.57
5879;BME280;2965;42.640;23.370;2022-11-03T06:36:02;95156.50;;;20.99;82.21
5879;BME280;2965;42.640;23.370;2022-11-03T06:38:30;95158.22;;;21.05;79.56
5879;BME280;2965;42.640;23.370;2022-11-03T06:40:58;95156.28;;;21.12;80.14
5879;BME280;2965;42.640;23.370;2022-11-03T06:43:40;95162.84;;;21.21;80.57
5879;BME280;2965;42.640;23.370;2022-11-03T06:46:17;95165.63;;;21.26;77.98
5879;BME280;2965;42.640;23.370;2022-11-03T06:48:43;95164.09;;;21.30;77.72
5879;BME280;2965;42.640;23.370;2022-11-03T06:51:15;95166.31;;;21.33;77.25
5879;BME280;2965;42.640;23.370;2022-11-03T06:53:40;95165.72;;;21.43;76.78
5879;BME280;2965;42.640;23.370;2022-11-03T06:56:12;95165.84;;;21.36;72.70
5879;BME280;2965;42.640;23.370;2022-11-03T06:58:40;95157.06;;;20.89;65.75
5879;BME280;2965;42.640;23.370;2022-11-03T07:01:13;95158.50;;;19.96;64.54
5879;BME280;2965;42.640;23.370;2022-11-03T07:03:39;95159.84;;;18.83;69.48
5879;BME280;2965;42.640;23.370;2022-11-03T07:06:17;95159.78;;;18.65;70.54
5879;BME280;2965;42.640;23.370;2022-11-03T07:08:48;95158.44;;;18.56;71.84
5879;BME280;2965;42.640;23.370;2022-11-03T07:11:18;95148.38;;;18.39;72.41
5879;BME280;2965;42.640;23.370;2022-11-03T07:13:45;95147.53;;;18.14;74.97
5879;BME280;2965;42.640;23.370;2022-11-03T07:16:40;95149.16;;;17.38;78.79
5879;BME280;2965;42.640;23.370;2022-11-03T07:19:04;95146.41;;;18.03;95.46
5879;BME280;2965;42.640;23.370;2022-11-03T07:21:36;95150.03;;;18.09;78.32
5879;BME280;2965;42.640;23.370;2022-11-03T07:24:18;95149.22;;;18.08;80.71
5879;BME280;2965;42.640;23.370;2022-11-03T07:26:44;95145.75;;;17.76;77.76
5879;BME280;2965;42.640;23.370;2022-11-03T07:29:17;95152.25;;;17.80;83.94
5879;BME280;2965;42.640;23.370;2022-11-03T07:31:43;95145.28;;;17.86;77.35
5879;BME280;2965;42.640;23.370;2022-11-03T07:34:14;95147.63;;;18.01;80.43
5879;BME280;2965;42.640;23.370;2022-11-03T07:36:43;95146.44;;;17.97;79.22
5879;BME280;2965;42.640;23.370;2022-11-03T07:39:12;95151.31;;;18.00;87.09
5879;BME280;2965;42.640;23.370;2022-11-03T07:41:40;95145.59;;;18.03;77.75
5879;BME280;2965;42.640;23.370;2022-11-03T07:44:09;95145.47;;;17.39;78.88
5879;BME280;2965;42.640;23.370;2022-11-03T07:46:38;95144.91;;;17.82;88.40
5879;BME280;2965;42.640;23.370;2022-11-03T07:49:03;95144.31;;;17.80;80.42
5879;BME280;2965;42.640;23.370;2022-11-03T07:51:36;95141.19;;;17.90;81.75
5879;BME280;2965;42.640;23.370;2022-11-03T07:56:42;95138.03;;;17.68;79.06
5879;BME280;2965;42.640;23.370;2022-11-03T08:01:48;95140.28;;;17.13;82.83
5879;BME280;2965;42.640;23.370;2022-11-03T08:04:33;95135.31;;;17.43;83.88
5879;BME280;2965;42.640;23.370;2022-11-03T08:06:59;95134.41;;;17.62;84.09
5879;BME280;2965;42.640;23.370;2022-11-03T08:09:25;95123.50;;;17.46;83.39
5879;BME280;2965;42.640;23.370;2022-11-03T08:11:51;95119.09;;;17.26;85.31
5879;BME280;2965;42.640;23.370;2022-11-03T08:14:17;95116.09;;;17.16;87.10
5879;BME280;2965;42.640;23.370;2022-11-03T08:16:43;95113.03;;;17.19;87.12
5879;BME280;2965;42.640;23.370;2022-11-03T08:19:08;95109.31;;;17.33;88.03
5879;BME280;2965;42.640;23.370;2022-11-03T08:21:34;95112.13;;;17.38;84.43
5879;BME280;2965;42.640;23.370;2022-11-03T08:23:59;95103.16;;;17.46;86.85
5879;BME280;2965;42.640;23.370;2022-11-03T08:26:25;95099.88;;;17.51;85.39
5879;BME280;2965;42.640;23.370;2022-11-03T08:28:50;95104.22;;;17.70;87.28
5879;BME280;2965;42.640;23.370;2022-11-03T08:31:16;95106.16;;;17.95;80.20
5879;BME280;2965;42.640;23.370;2022-11-03T08:33:41;95101.16;;;18.11;82.10
5879;BME280;2965;42.640;23.370;2022-11-03T08:36:07;95101.47;;;18.22;81.23
5879;BME280;2965;42.640;23.370;2022-11-03T08:38:33;95099.63;;;18.22;80.51
5879;BME280;2965;42.640;23.370;2022-11-03T08:40:59;95095.50;;;18.26;79.92
5879;BME280;2965;42.640;23.370;2022-11-03T08:43:25;95103.78;;;18.36;79.56
5879;BME280;2965;42.640;23.370;2022-11-03T08:45:50;95107.19;;;18.44;77.31
5879;BME280;2965;42.640;23.370;2022-11-03T08:48:22;95104.69;;;18.92;76.97
5879;BME280;2965;42.640;23.370;2022-11-03T08:50:48;95096.34;;;19.25;75.08
5879;BME280;2965;42.640;23.370;2022-11-03T08:53:18;95098.44;;;19.23;71.63
5879;BME280;2965;42.640;23.370;2022-11-03T08:55:44;95102.41;;;19.32;72.16
5879;BME280;2965;42.640;23.370;2022-11-03T08:58:09;95104.56;;;19.54;73.81
5879;BME280;2965;42.640;23.370;2022-11-03T09:00:35;95103.59;;;19.97;72.00
5879;BME280;2965;42.640;23.370;2022-11-03T09:03:00;95098.28;;;19.97;71.06
5879;BME280;2965;42.640;23.370;2022-11-03T09:05:25;95098.63;;;19.88;73.13
5879;BME280;2965;42.640;23.370;2022-11-03T09:07:51;95096.59;;;19.72;74.67
5879;BME280;2965;42.640;23.370;2022-11-03T09:10:16;95090.69;;;20.12;70.80
5879;BME280;2965;42.640;23.370;2022-11-03T09:12:42;95088.53;;;20.44;73.58
5879;BME280;2965;42.640;23.370;2022-11-03T09:15:07;95094.91;;;20.66;69.45
5879;BME280;2965;42.640;23.370;2022-11-03T09:17:33;95086.19;;;21.06;68.45
5879;BME280;2965;42.640;23.370;2022-11-03T09:19:58;95079.53;;;20.80;66.78
5879;BME280;2965;42.640;23.370;2022-11-03T09:22:24;95078.28;;;20.59;67.52
5879;BME280;2965;42.640;23.370;2022-11-03T09:24:49;95078.31;;;21.11;65.72
5879;BME280;2965;42.640;23.370;2022-11-03T09:27:15;95070.66;;;21.27;64.44
5879;BME280;2965;42.640;23.370;2022-11-03T09:29:40;95071.63;;;20.97;62.10
5879;BME280;2965;42.640;23.370;2022-11-03T09:32:05;95069.75;;;21.21;62.56
5879;BME280;2965;42.640;23.370;2022-11-03T09:34:32;95070.34;;;21.80;62.59
5879;BME280;2965;42.640;23.370;2022-11-03T09:36:57;95059.69;;;21.80;61.49
5879;BME280;2965;42.640;23.370;2022-11-03T09:39:23;95060.88;;;21.04;62.47
5879;BME280;2965;42.640;23.370;2022-11-03T09:41:49;95052.31;;;21.02;63.52
5879;BME280;2965;42.640;23.370;2022-11-03T09:44:14;95055.84;;;20.67;65.24
5879;BME280;2965;42.640;23.370;2022-11-03T09:46:40;95051.56;;;20.78;66.17
5879;BME280;2965;42.640;23.370;2022-11-03T09:49:05;95045.44;;;20.77;64.49
5879;BME280;2965;42.640;23.370;2022-11-03T09:51:31;95046.97;;;21.54;62.84
5879;BME280;2965;42.640;23.370;2022-11-03T09:54:02;95050.50;;;21.88;60.31
5879;BME280;2965;42.640;23.370;2022-11-03T09:56:29;95047.81;;;22.33;56.52
5879;BME280;2965;42.640;23.370;2022-11-03T09:58:55;95042.25;;;22.18;56.30
5879;BME280;2965;42.640;23.370;2022-11-03T10:01:21;95036.09;;;22.73;57.62
5879;BME280;2965;42.640;23.370;2022-11-03T10:03:46;95035.41;;;23.00;56.39
5879;BME280;2965;42.640;23.370;2022-11-03T10:06:11;95030.38;;;23.03;56.59
5879;BME280;2965;42.640;23.370;2022-11-03T10:08:38;95023.50;;;23.07;56.04
5879;BME280;2965;42.640;23.370;2022-11-03T10:11:06;95018.56;;;23.43;54.40
5879;BME280;2965;42.640;23.370;2022-11-03T10:13:41;95013.94;;;23.87;52.43
5879;BME280;2965;42.640;23.370;2022-11-03T10:16:11;95006.88;;;23.76;54.70
5879;BME280;2965;42.640;23.370;2022-11-03T10:18:39;95009.13;;;23.35;51.60
5879;BME280;2965;42.640;23.370;2022-11-03T10:21:08;95004.00;;;22.63;51.80
5879;BME280;2965;42.640;23.370;2022-11-03T10:23:36;95000.59;;;22.67;52.00
5879;BME280;2965;42.640;23.370;2022-11-03T10:26:13;94991.44;;;23.02;52.00
5879;BME280;2965;42.640;23.370;2022-11-03T10:28:56;95000.66;;;23.65;50.63
5879;BME280;2965;42.640;23.370;2022-11-03T10:31:22;94984.03;;;24.23;46.71
5879;BME280;2965;42.640;23.370;2022-11-03T10:33:55;94979.94;;;24.15;47.78
5879;BME280;2965;42.640;23.370;2022-11-03T10:36:23;94982.47;;;23.95;46.97
5879;BME280;2965;42.640;23.370;2022-11-03T10:38:49;94982.19;;;24.28;43.86
5879;BME280;2965;42.640;23.370;2022-11-03T10:41:17;94968.53;;;24.67;42.54
5879;BME280;2965;42.640;23.370;2022-11-03T10:43:57;94972.50;;;25.27;42.69
5879;BME280;2965;42.640;23.370;2022-11-03T10:46:23;94970.13;;;25.31;45.15
5879;BME280;2965;42.640;23.370;2022-11-03T10:49:07;94960.84;;;24.86;44.44
5879;BME280;2965;42.640;23.370;2022-11-03T10:51:36;94953.19;;;24.52;42.87
5879;BME280;2965;42.640;23.370;2022-11-03T10:54:03;94946.19;;;24.04;42.81
5879;BME280;2965;42.640;23.370;2022-11-03T10:56:29;94944.50;;;23.87;43.58
5879;BME280;2965;42.640;23.370;2022-11-03T10:58:56;94945.69;;;24.07;43.58
5879;BME280;2965;42.640;23.370;2022-11-03T11:01:22;94936.38;;;24.57;42.76
5879;BME280;2965;42.640;23.370;2022-11-03T11:03:47;94936.69;;;25.38;42.12
5879;BME280;2965;42.640;23.370;2022-11-03T11:06:27;94922.75;;;25.36;40.97
5879;BME280;2965;42.640;23.370;2022-11-03T11:08:59;94920.63;;;24.60;40.24
5879;BME280;2965;42.640;23.370;2022-11-03T11:11:25;94927.63;;;24.24;41.31
5879;BME280;2965;42.640;23.370;2022-11-03T11:14:19;94917.47;;;24.21;40.48
5879;BME280;2965;42.640;23.370;2022-11-03T11:16:53;94917.38;;;25.16;38.82
5879;BME280;2965;42.640;23.370;2022-11-03T11:19:20;94912.34;;;25.81;38.69
5879;BME280;2965;42.640;23.370;2022-11-03T11:37:52;94895.41;;;25.14;38.25
5879;BME280;2965;42.640;23.370;2022-11-03T11:48:37;94875.97;;;27.59;34.82
5879;BME280;2965;42.640;23.370;2022-11-03T11:51:10;94870.94;;;27.86;34.88
5879;BME280;2965;42.640;23.370;2022-11-03T11:53:39;94861.06;;;27.42;36.65
5879;BME280;2965;42.640;23.370;2022-11-03T11:56:09;94859.28;;;27.28;38.39
5879;BME280;2965;42.640;23.370;2022-11-03T11:58:49;94860.25;;;28.05;37.25
5879;BME280;2965;42.640;23.370;2022-11-03T12:01:28;94860.47;;;28.62;35.08
5879;BME280;2965;42.640;23.370;2022-11-03T12:03:57;94854.44;;;27.64;36.30
5879;BME280;2965;42.640;23.370;2022-11-03T12:09:15;94838.53;;;26.39;36.85
5879;BME280;2965;42.640;23.370;2022-11-03T12:11:42;94849.84;;;26.26;38.23
5879;BME280;2965;42.640;23.370;2022-11-03T12:14:37;94839.75;;;25.72;37.66
5879;BME280;2965;42.640;23.370;2022-11-03T12:25:05;94836.13;;;26.98;36.48
5879;BME280;2965;42.640;23.370;2022-11-03T12:30:17;94829.72;;;27.62;33.34
5879;BME280;2965;42.640;23.370;2022-11-03T12:32:43;94829.97;;;26.92;34.40
5879;BME280;2965;42.640;23.370;2022-11-03T12:35:10;94826.16;;;27.42;34.91
5879;BME280;2965;42.640;23.370;2022-11-03T12:37:37;94823.78;;;27.36;35.42
5879;BME280;2965;42.640;23.370;2022-11-03T12:40:04;94820.28;;;26.41;35.06
5879;BME280;2965;42.640;23.370;2022-11-03T12:42:29;94817.34;;;26.33;35.08
5879;BME280;2965;42.640;23.370;2022-11-03T12:44:55;94821.78;;;25.88;35.20
5879;BME280;2965;42.640;23.370;2022-11-03T12:47:20;94810.03;;;25.63;35.16
5879;BME280;2965;42.640;23.370;2022-11-03T12:49:46;94810.28;;;25.87;35.75
5879;BME280;2965;42.640;23.370;2022-11-03T12:52:11;94811.91;;;25.48;36.46
5879;BME280;2965;42.640;23.370;2022-11-03T12:54:37;94811.66;;;25.44;36.09
5879;BME280;2965;42.640;23.370;2022-11-03T12:57:03;94804.38;;;25.70;36.82
5879;BME280;2965;42.640;23.370;2022-11-03T12:59:29;94806.03;;;25.81;36.49
5879;BME280;2965;42.640;23.370;2022-11-03T13:01:54;94798.81;;;26.41;36.46
5879;BME280;2965;42.640;23.370;2022-11-03T13:04:19;94800.81;;;27.54;33.01
5879;BME280;2965;42.640;23.370;2022-11-03T13:06:45;94800.59;;;28.27;32.19
5879;BME280;2965;42.640;23.370;2022-11-03T13:09:10;94798.84;;;28.17;32.62
5879;BME280;2965;42.640;23.370;2022-11-03T13:11:36;94805.34;;;28.78;32.41
5879;BME280;2965;42.640;23.370;2022-11-03T13:14:20;94790.72;;;27.70;33.07
5879;BME280;2965;42.640;23.370;2022-11-03T13:19:14;94790.25;;;26.50;34.68
5879;BME280;2965;42.640;23.370;2022-11-03T13:21:40;94792.09;;;26.99;34.29
5879;BME280;2965;42.640;23.370;2022-11-03T13:24:05;94784.59;;;26.56;34.26
5879;BME280;2965;42.640;23.370;2022-11-03T13:26:31;94791.97;;;27.19;33.74
5879;BME280;2965;42.640;23.370;2022-11-03T13:28:56;94785.66;;;27.34;34.43
5879;BME280;2965;42.640;23.370;2022-11-03T13:31:21;94781.47;;;26.78;33.63
5879;BME280;2965;42.640;23.370;2022-11-03T13:33:47;94780.66;;;26.28;34.30
5879;BME280;2965;42.640;23.370;2022-11-03T13:36:12;94785.50;;;26.26;36.38
5879;BME280;2965;42.640;23.370;2022-11-03T13:38:37;94781.25;;;26.75;34.19
5879;BME280;2965;42.640;23.370;2022-11-03T13:41:03;94779.94;;;27.46;33.36
5879;BME280;2965;42.640;23.370;2022-11-03T13:43:28;94781.28;;;27.43;34.36
5879;BME280;2965;42.640;23.370;2022-11-03T13:45:54;94773.41;;;26.83;33.31
5879;BME280;2965;42.640;23.370;2022-11-03T13:48:22;94775.81;;;27.24;33.21
5879;BME280;2965;42.640;23.370;2022-11-03T13:50:48;94776.97;;;27.71;33.73
5879;BME280;2965;42.640;23.370;2022-11-03T13:53:16;94775.22;;;27.90;33.13
5879;BME280;2965;42.640;23.370;2022-11-03T13:55:41;94777.34;;;27.94;32.72
5879;BME280;2965;42.640;23.370;2022-11-03T13:58:06;94770.16;;;28.32;31.97
5879;BME280;2965;42.640;23.370;2022-11-03T14:00:32;94778.59;;;28.25;31.16
5879;BME280;2965;42.640;23.370;2022-11-03T14:02:57;94765.03;;;27.87;31.83
5879;BME280;2965;42.640;23.370;2022-11-03T14:05:22;94783.97;;;28.25;32.05
5879;BME280;2965;42.640;23.370;2022-11-03T14:07:48;94785.53;;;28.50;32.54
5879;BME280;2965;42.640;23.370;2022-11-03T14:10:14;94782.94;;;28.64;31.52
5879;BME280;2965;42.640;23.370;2022-11-03T14:12:39;94778.88;;;28.48;33.97
5879;BME280;2965;42.640;23.370;2022-11-03T14:15:09;94779.88;;;28.52;33.83
5879;BME280;2965;42.640;23.370;2022-11-03T14:17:36;94776.66;;;28.50;32.85
5879;BME280;2965;42.640;23.370;2022-11-03T14:20:02;94774.84;;;27.97;32.32
5879;BME280;2965;42.640;23.370;2022-11-03T14:22:28;94781.44;;;27.57;32.53
5879;BME280;2965;42.640;23.370;2022-11-03T14:24:55;94777.44;;;26.81;33.34
5879;BME280;2965;42.640;23.370;2022-11-03T14:27:20;94782.84;;;26.21;33.81
5879;BME280;2965;42.640;23.370;2022-11-03T14:29:46;94773.72;;;26.22;35.59
5879;BME280;2965;42.640;23.370;2022-11-03T14:32:16;94776.56;;;25.61;35.76
5879;BME280;2965;42.640;23.370;2022-11-03T14:34:41;94775.25;;;25.28;36.51
5879;BME280;2965;42.640;23.370;2022-11-03T14:37:08;94774.44;;;25.27;37.88
5879;BME280;2965;42.640;23.370;2022-11-03T14:39:34;94778.16;;;24.85;38.33
5879;BME280;2965;42.640;23.370;2022-11-03T14:42:12;94781.34;;;24.67;38.50
5879;BME280;2965;42.640;23.370;2022-11-03T14:44:43;94781.00;;;24.38;38.68
5879;BME280;2965;42.640;23.370;2022-11-03T14:47:10;94778.53;;;24.26;39.92
5879;BME280;2965;42.640;23.370;2022-11-03T14:49:36;94771.53;;;24.10;42.27
5879;BME280;2965;42.640;23.370;2022-11-03T14:52:03;94770.44;;;24.06;43.23
5879;BME280;2965;42.640;23.370;2022-11-03T14:54:29;94774.06;;;23.84;41.07
5879;BME280;2965;42.640;23.370;2022-11-03T14:56:56;94770.59;;;23.41;41.11
5879;BME280;2965;42.640;23.370;2022-11-03T14:59:21;94776.03;;;23.20;44.38
5879;BME280;2965;42.640;23.370;2022-11-03T15:01:48;94773.72;;;22.69;42.88
5879;BME280;2965;42.640;23.370;2022-11-03T15:04:15;94780.81;;;22.58;44.93
5879;BME280;2965;42.640;23.370;2022-11-03T15:06:40;94774.53;;;22.42;45.99
5879;BME280;2965;42.640;23.370;2022-11-03T15:09:07;94778.78;;;22.44;48.21
5879;BME280;2965;42.640;23.370;2022-11-03T15:11:33;94778.63;;;22.28;48.14
5879;BME280;2965;42.640;23.370;2022-11-03T15:13:59;94769.31;;;22.09;49.05
5879;BME280;2965;42.640;23.370;2022-11-03T15:16:24;94771.63;;;22.00;48.60
5879;BME280;2965;42.640;23.370;2022-11-03T15:18:50;94772.44;;;22.01;48.39
5879;BME280;2965;42.640;23.370;2022-11-03T15:21:16;94777.50;;;21.80;48.90
5879;BME280;2965;42.640;23.370;2022-11-03T15:23:41;94775.59;;;21.59;50.50
5879;BME280;2965;42.640;23.370;2022-11-03T15:26:07;94771.69;;;21.45;49.93
5879;BME280;2965;42.640;23.370;2022-11-03T15:28:32;94772.56;;;21.16;50.95
5879;BME280;2965;42.640;23.370;2022-11-03T15:30:58;94773.38;;;21.00;51.40
5879;BME280;2965;42.640;23.370;2022-11-03T15:33:23;94768.72;;;20.90;52.81
5879;BME280;2965;42.640;23.370;2022-11-03T15:35:49;94754.84;;;20.88;53.42
5879;BME280;2965;42.640;23.370;2022-11-03T15:38:15;94768.03;;;20.83;51.52
5879;BME280;2965;42.640;23.370;2022-11-03T15:40:40;94771.91;;;20.59;51.42
5879;BME280;2965;42.640;23.370;2022-11-03T15:43:05;94774.81;;;20.46;51.49
5879;BME280;2965;42.640;23.370;2022-11-03T15:45:31;94764.34;;;20.10;49.82
5879;BME280;2965;42.640;23.370;2022-11-03T15:47:57;94779.19;;;19.71;50.23
5879;BME280;2965;42.640;23.370;2022-11-03T15:50:23;94770.91;;;19.44;51.04
5879;BME280;2965;42.640;23.370;2022-11-03T15:52:50;94774.91;;;19.47;52.21
5879;BME280;2965;42.640;23.370;2022-11-03T15:55:15;94764.09;;;19.36;51.73
5879;BME280;2965;42.640;23.370;2022-11-03T15:57:41;94767.69;;;19.30;53.30
5879;BME280;2965;42.640;23.370;2022-11-03T16:00:07;94764.31;;;19.23;53.31
5879;BME280;2965;42.640;23.370;2022-11-03T16:02:32;94760.88;;;19.23;53.80
5879;BME280;2965;42.640;23.370;2022-11-03T16:04:58;94762.00;;;19.15;52.57
5879;BME280;2965;42.640;23.370;2022-11-03T16:07:25;94762.00;;;19.15;54.20
5879;BME280;2965;42.640;23.370;2022-11-03T16:09:50;94763.63;;;19.16;54.94
5879;BME280;2965;42.640;23.370;2022-11-03T16:12:15;94755.09;;;19.14;56.64
5879;BME280;2965;42.640;23.370;2022-11-03T16:14:41;94765.00;;;19.07;56.91
5879;BME280;2965;42.640;23.370;2022-11-03T16:17:06;94773.03;;;18.88;56.23
5879;BME280;2965;42.640;23.370;2022-11-03T16:19:31;94775.78;;;18.70;58.93
5879;BME280;2965;42.640;23.370;2022-11-03T16:21:57;94771.94;;;18.24;59.23
5879;BME280;2965;42.640;23.370;2022-11-03T16:24:23;94785.78;;;18.08;59.41
5879;BME280;2965;42.640;23.370;2022-11-03T16:26:48;94778.13;;;18.00;61.27
5879;BME280;2965;42.640;23.370;2022-11-03T16:29:15;94783.28;;;18.13;60.94
5879;BME280;2965;42.640;23.370;2022-11-03T16:31:40;94780.63;;;18.13;60.97
5879;BME280;2965;42.640;23.370;2022-11-03T16:34:06;94786.28;;;18.17;61.43
5879;BME280;2965;42.640;23.370;2022-11-03T16:36:31;94781.34;;;18.20;61.10
5879;BME280;2965;42.640;23.370;2022-11-03T16:38:56;94785.31;;;18.29;61.19
5879;BME280;2965;42.640;23.370;2022-11-03T16:41:22;94784.13;;;18.25;60.94
5879;BME280;2965;42.640;23.370;2022-11-03T16:43:50;94781.13;;;18.22;62.26
5879;BME280;2965;42.640;23.370;2022-11-03T16:46:15;94786.81;;;18.07;61.27
5879;BME280;2965;42.640;23.370;2022-11-03T16:48:40;94785.63;;;18.03;60.54
5879;BME280;2965;42.640;23.370;2022-11-03T16:51:06;94779.69;;;18.07;62.16
5879;BME280;2965;42.640;23.370;2022-11-03T16:53:31;94778.41;;;18.10;60.90
5879;BME280;2965;42.640;23.370;2022-11-03T16:55:57;94775.06;;;18.03;60.98
5879;BME280;2965;42.640;23.370;2022-11-03T16:58:22;94782.41;;;18.01;60.98
5879;BME280;2965;42.640;23.370;2022-11-03T17:00:48;94778.00;;;17.95;61.70
5879;BME280;2965;42.640;23.370;2022-11-03T17:03:13;94782.25;;;17.96;61.89
5879;BME280;2965;42.640;23.370;2022-11-03T17:05:39;94778.06;;;17.88;62.17
5879;BME280;2965;42.640;23.370;2022-11-03T17:08:05;94783.28;;;17.95;62.12
5879;BME280;2965;42.640;23.370;2022-11-03T17:10:30;94784.03;;;18.02;63.43
5879;BME280;2965;42.640;23.370;2022-11-03T17:12:57;94778.91;;;17.88;64.89
5879;BME280;2965;42.640;23.370;2022-11-03T17:15:23;94775.78;;;17.73;64.01
5879;BME280;2965;42.640;23.370;2022-11-03T17:17:49;94763.34;;;17.55;62.41
5879;BME280;2965;42.640;23.370;2022-11-03T17:20:15;94776.34;;;17.38;62.32
5879;BME280;2965;42.640;23.370;2022-11-03T17:22:41;94780.31;;;17.29;63.31
5879;BME280;2965;42.640;23.370;2022-11-03T17:25:08;94780.59;;;17.39;65.18
5879;BME280;2965;42.640;23.370;2022-11-03T17:27:44;94781.66;;;17.57;64.83
5879;BME280;2965;42.640;23.370;2022-11-03T17:43:59;94780.31;;;17.66;62.07
5879;BME280;2965;42.640;23.370;2022-11-03T17:46:24;94772.25;;;17.61;61.65
5879;BME280;2965;42.640;23.370;2022-11-03T17:48:50;94775.63;;;17.50;62.75
5879;BME280;2965;42.640;23.370;2022-11-03T17:51:15;94770.91;;;17.33;63.83
5879;BME280;2965;42.640;23.370;2022-11-03T17:53:41;94780.28;;;17.11;64.34
5879;BME280;2965;42.640;23.370;2022-11-03T17:56:13;94774.44;;;17.02;65.96
5879;BME280;2965;42.640;23.370;2022-11-03T17:58:39;94778.63;;;16.92;65.86
5879;BME280;2965;42.640;23.370;2022-11-03T18:01:05;94778.72;;;16.78;69.46
5879;BME280;2965;42.640;23.370;2022-11-03T18:03:33;94772.72;;;16.58;66.96
5879;BME280;2965;42.640;23.370;2022-11-03T18:05:58;94781.06;;;16.55;67.61
5879;BME280;2965;42.640;23.370;2022-11-03T18:08:24;94775.63;;;16.50;69.79
5879;BME280;2965;42.640;23.370;2022-11-03T18:10:50;94782.19;;;16.40;67.87
5879;BME280;2965;42.640;23.370;2022-11-03T18:13:18;94776.56;;;16.30;67.68
5879;BME280;2965;42.640;23.370;2022-11-03T18:15:46;94779.06;;;16.19;68.88
5879;BME280;2965;42.640;23.370;2022-11-03T18:18:25;94770.13;;;16.20;73.56
5879;BME280;2965;42.640;23.370;2022-11-03T18:20:53;94774.16;;;16.22;71.92
5879;BME280;2965;42.640;23.370;2022-11-03T18:23:24;94774.09;;;16.35;71.34
5879;BME280;2965;42.640;23.370;2022-11-03T18:25:50;94774.50;;;16.39;72.42
5879;BME280;2965;42.640;23.370;2022-11-03T18:28:16;94774.88;;;16.43;70.92
5879;BME280;2965;42.640;23.370;2022-11-03T18:30:43;94767.78;;;16.36;70.79
5879;BME280;2965;42.640;23.370;2022-11-03T18:33:16;94770.03;;;16.33;72.29
5879;BME280;2965;42.640;23.370;2022-11-03T18:35:42;94769.22;;;16.32;72.96
5879;BME280;2965;42.640;23.370;2022-11-03T18:38:12;94774.50;;;16.39;72.99
5879;BME280;2965;42.640;23.370;2022-11-03T18:40:40;94778.69;;;16.47;74.33
5879;BME280;2965;42.640;23.370;2022-11-03T18:43:18;94770.44;;;16.36;70.82
5879;BME280;2965;42.640;23.370;2022-11-03T18:45:43;94764.00;;;16.26;71.42
5879;BME280;2965;42.640;23.370;2022-11-03T18:48:09;94759.53;;;16.26;73.33
5879;BME280;2965;42.640;23.370;2022-11-03T18:50:44;94756.72;;;16.21;74.59
5879;BME280;2965;42.640;23.370;2022-11-03T18:53:11;94764.09;;;16.12;71.91
5879;BME280;2965;42.640;23.370;2022-11-03T18:55:56;94766.91;;;16.11;73.71
5879;BME280;2965;42.640;23.370;2022-11-03T18:58:24;94767.75;;;16.05;71.97
5879;BME280;2965;42.640;23.370;2022-11-03T19:00:51;94769.19;;;16.01;72.92
5879;BME280;2965;42.640;23.370;2022-11-03T19:03:21;94770.22;;;16.00;72.78
5879;BME280;2965;42.640;23.370;2022-11-03T19:05:48;94767.41;;;15.95;73.97
5879;BME280;2965;42.640;23.370;2022-11-03T19:08:19;94776.78;;;15.91;75.43
5879;BME280;2965;42.640;23.370;2022-11-03T19:10:46;94778.78;;;15.88;76.11
5879;BME280;2965;42.640;23.370;2022-11-03T19:13:15;94773.09;;;15.92;76.71
5879;BME280;2965;42.640;23.370;2022-11-03T19:15:43;94775.56;;;15.86;75.56
5879;BME280;2965;42.640;23.370;2022-11-03T19:18:10;94772.94;;;15.86;76.16
5879;BME280;2965;42.640;23.370;2022-11-03T19:20:37;94764.03;;;15.81;77.74
5879;BME280;2965;42.640;23.370;2022-11-03T19:23:03;94756.47;;;15.84;78.58
5879;BME280;2965;42.640;23.370;2022-11-03T19:25:28;94742.09;;;15.80;78.11